Terminal Aerodrome Forecast
Issued by NWS

Home | Current Version | Previous Version | Graphics & Text | Print | Product List | Glossary On
Versions: 1 2 3 4 5 6 7 8 9 10 11 12 13 14 15 16 17
000
FTUS43 KICT 240700 AAA
TAFSLN
TAF AMD
KSLN 240717Z 2407/2506 33022G30KT P6SM VCTS SCT045CB OVC090
     FM240800 35017G25KT 5SM RA VCTS OVC045CB
     FM241100 33017G25KT P6SM VCSH SCT025 OVC050
     FM241400 34017G25KT P6SM OVC080
     FM241900 34017G25KT P6SM SCT100=

USA.gov is the U.S. government's official web portal to all federal, state and local government web resources and services.